Guntersville, Alabama
Current Conditions -  °F | °C
As of 1:35 PM on Thursday 23 Oct 2014 (Local Time) from K8A0 Reporting Station
Clear Clear  
Wind Chill: 64°   Ceiling: Unl
Heat Index: 64°   Visibility: 10mi
Dew Point: 50°   Wind: 5mph
Humidity: 59%   Direction: 10°N
Pressure: 30.09"   Gusts: NA
Location:  34.35°N, 86.3°W
Report Text: K8A0 231835Z AUTO 01004KT 10SM CLR 18/10 A3009 RMK AO2
Loading
Personal Weather Stations






























Interactive Weather Map
Tropical Storm Tracking
New forecast layout! Learn more

10-Day Weather Forecast

Advertisements
Track Severe Weather on mobile